sensor_id;sensor_type;location;lat;lon;timestamp;pressure;altitude;pressure_sealevel;temperature;humidity
37710;BME280;60223;34.854;-92.408;2023-08-30T00:01:34;100110.62;;;31.16;23.21
37710;BME280;60223;34.854;-92.408;2023-08-30T00:04:03;100111.17;;;30.34;24.04
37710;BME280;60223;34.854;-92.408;2023-08-30T00:06:27;100108.40;;;29.68;24.44
37710;BME280;60223;34.854;-92.408;2023-08-30T00:08:53;100106.25;;;29.87;24.54
37710;BME280;60223;34.854;-92.408;2023-08-30T00:11:17;100094.63;;;30.09;23.73
37710;BME280;60223;34.854;-92.408;2023-08-30T00:13:41;100096.88;;;29.89;24.07
37710;BME280;60223;34.854;-92.408;2023-08-30T00:16:09;100094.01;;;29.54;24.36
37710;BME280;60223;34.854;-92.408;2023-08-30T00:18:35;100092.65;;;29.27;24.69
37710;BME280;60223;34.854;-92.408;2023-08-30T00:21:00;100093.31;;;29.17;24.70
37710;BME280;60223;34.854;-92.408;2023-08-30T00:23:25;100091.18;;;28.40;25.09
37710;BME280;60223;34.854;-92.408;2023-08-30T00:25:51;100097.57;;;30.24;24.19
37710;BME280;60223;34.854;-92.408;2023-08-30T00:28:17;100097.96;;;31.17;23.38
37710;BME280;60223;34.854;-92.408;2023-08-30T00:30:42;100097.38;;;31.67;22.98
37710;BME280;60223;34.854;-92.408;2023-08-30T00:33:08;100099.04;;;30.98;23.40
37710;BME280;60223;34.854;-92.408;2023-08-30T00:35:33;100096.69;;;30.38;23.96
37710;BME280;60223;34.854;-92.408;2023-08-30T00:37:59;100094.87;;;30.76;23.92
37710;BME280;60223;34.854;-92.408;2023-08-30T00:40:22;100097.33;;;30.04;24.57
37710;BME280;60223;34.854;-92.408;2023-08-30T00:42:50;100095.32;;;30.65;24.10
37710;BME280;60223;34.854;-92.408;2023-08-30T00:45:15;100097.18;;;30.34;23.82
37710;BME280;60223;34.854;-92.408;2023-08-30T00:47:41;100097.63;;;29.74;24.47
37710;BME280;60223;34.854;-92.408;2023-08-30T00:50:05;100096.63;;;29.63;24.62
37710;BME280;60223;34.854;-92.408;2023-08-30T00:52:32;100094.41;;;29.51;24.59
37710;BME280;60223;34.854;-92.408;2023-08-30T00:54:58;100094.49;;;29.63;24.35
37710;BME280;60223;34.854;-92.408;2023-08-30T00:57:23;100094.82;;;29.59;24.29
37710;BME280;60223;34.854;-92.408;2023-08-30T00:59:49;100099.84;;;29.32;25.01
37710;BME280;60223;34.854;-92.408;2023-08-30T01:02:13;100102.60;;;30.69;23.64
37710;BME280;60223;34.854;-92.408;2023-08-30T01:04:40;100100.89;;;30.84;23.36
37710;BME280;60223;34.854;-92.408;2023-08-30T01:07:05;100106.07;;;31.28;23.19
37710;BME280;60223;34.854;-92.408;2023-08-30T01:09:31;100108.64;;;30.98;23.12
37710;BME280;60223;34.854;-92.408;2023-08-30T01:12:02;100105.43;;;30.68;23.49
37710;BME280;60223;34.854;-92.408;2023-08-30T01:14:22;100105.00;;;30.55;24.07
37710;BME280;60223;34.854;-92.408;2023-08-30T01:16:48;100104.19;;;29.69;24.64
37710;BME280;60223;34.854;-92.408;2023-08-30T01:19:23;100108.73;;;29.38;24.74
37710;BME280;60223;34.854;-92.408;2023-08-30T01:21:43;100113.95;;;29.87;24.59
37710;BME280;60223;34.854;-92.408;2023-08-30T01:24:07;100116.94;;;29.51;24.73
37710;BME280;60223;34.854;-92.408;2023-08-30T01:26:38;100117.96;;;29.60;24.69
37710;BME280;60223;34.854;-92.408;2023-08-30T01:28:57;100114.81;;;30.89;24.11
37710;BME280;60223;34.854;-92.408;2023-08-30T01:31:22;100117.28;;;30.04;24.21
37710;BME280;60223;34.854;-92.408;2023-08-30T01:33:47;100116.27;;;30.08;24.46
37710;BME280;60223;34.854;-92.408;2023-08-30T01:36:12;100120.24;;;29.53;24.57
37710;BME280;60223;34.854;-92.408;2023-08-30T01:53:20;100161.82;;;31.03;23.50
37710;BME280;60223;34.854;-92.408;2023-08-30T01:55:38;100181.00;;;30.80;23.76
37710;BME280;60223;34.854;-92.408;2023-08-30T01:58:03;100178.72;;;30.18;24.32
37710;BME280;60223;34.854;-92.408;2023-08-30T02:00:28;100182.14;;;29.96;24.74
37710;BME280;60223;34.854;-92.408;2023-08-30T02:02:54;100182.46;;;30.84;23.82
37710;BME280;60223;34.854;-92.408;2023-08-30T02:05:18;100188.96;;;29.90;24.39
37710;BME280;60223;34.854;-92.408;2023-08-30T02:07:51;100193.31;;;29.77;24.48
37710;BME280;60223;34.854;-92.408;2023-08-30T02:10:14;100194.89;;;29.48;24.58
37710;BME280;60223;34.854;-92.408;2023-08-30T02:12:41;100195.89;;;28.94;24.71
37710;BME280;60223;34.854;-92.408;2023-08-30T02:15:01;100203.31;;;29.45;24.32
37710;BME280;60223;34.854;-92.408;2023-08-30T02:17:28;100211.73;;;30.10;24.12
37710;BME280;60223;34.854;-92.408;2023-08-30T02:19:52;100218.05;;;30.51;23.58
37710;BME280;60223;34.854;-92.408;2023-08-30T02:22:18;100224.29;;;31.33;23.15
37710;BME280;60223;34.854;-92.408;2023-08-30T02:24:44;100226.49;;;31.52;23.04
37710;BME280;60223;34.854;-92.408;2023-08-30T02:27:09;100229.83;;;30.94;23.46
37710;BME280;60223;34.854;-92.408;2023-08-30T02:29:34;100231.25;;;30.84;23.80
37710;BME280;60223;34.854;-92.408;2023-08-30T02:32:02;100230.97;;;30.66;24.01
37710;BME280;60223;34.854;-92.408;2023-08-30T02:34:26;100233.90;;;30.21;24.21
37710;BME280;60223;34.854;-92.408;2023-08-30T02:36:52;100235.18;;;29.64;24.51
37710;BME280;60223;34.854;-92.408;2023-08-30T02:39:18;100234.99;;;29.48;24.69
37710;BME280;60223;34.854;-92.408;2023-08-30T02:41:42;100238.13;;;29.33;24.69
37710;BME280;60223;34.854;-92.408;2023-08-30T02:44:11;100237.65;;;30.70;23.80
37710;BME280;60223;34.854;-92.408;2023-08-30T02:46:34;100238.61;;;29.74;24.50
37710;BME280;60223;34.854;-92.408;2023-08-30T02:49:03;100239.07;;;29.41;24.55
37710;BME280;60223;34.854;-92.408;2023-08-30T02:51:23;100245.76;;;29.27;24.69
37710;BME280;60223;34.854;-92.408;2023-08-30T02:53:51;100243.16;;;28.84;24.72
37710;BME280;60223;34.854;-92.408;2023-08-30T02:56:16;100249.94;;;29.43;24.89
37710;BME280;60223;34.854;-92.408;2023-08-30T03:01:08;100243.37;;;30.99;23.41
37710;BME280;60223;34.854;-92.408;2023-08-30T03:03:33;100240.28;;;31.26;23.02
37710;BME280;60223;34.854;-92.408;2023-08-30T03:06:00;100239.82;;;31.21;23.13
37710;BME280;60223;34.854;-92.408;2023-08-30T03:08:24;100238.04;;;30.98;23.68
37710;BME280;60223;34.854;-92.408;2023-08-30T03:10:50;100240.15;;;30.84;23.39
37710;BME280;60223;34.854;-92.408;2023-08-30T03:13:15;100239.24;;;29.74;24.40
37710;BME280;60223;34.854;-92.408;2023-08-30T03:15:41;100239.36;;;30.61;23.92
37710;BME280;60223;34.854;-92.408;2023-08-30T03:18:07;100239.55;;;29.78;24.62
37710;BME280;60223;34.854;-92.408;2023-08-30T03:20:32;100243.16;;;29.62;24.58
37710;BME280;60223;34.854;-92.408;2023-08-30T03:22:59;100244.77;;;30.37;24.09
37710;BME280;60223;34.854;-92.408;2023-08-30T03:25:23;100247.13;;;30.16;24.26
37710;BME280;60223;34.854;-92.408;2023-08-30T03:27:48;100247.36;;;29.44;24.48
37710;BME280;60223;34.854;-92.408;2023-08-30T03:30:14;100254.45;;;29.19;24.55
37710;BME280;60223;34.854;-92.408;2023-08-30T03:32:38;100256.85;;;29.79;24.36
37710;BME280;60223;34.854;-92.408;2023-08-30T03:35:06;100258.60;;;30.72;23.55
37710;BME280;60223;34.854;-92.408;2023-08-30T03:39:57;100263.02;;;31.36;23.27
37710;BME280;60223;34.854;-92.408;2023-08-30T03:42:19;100259.95;;;30.87;23.86
37710;BME280;60223;34.854;-92.408;2023-08-30T03:44:47;100261.30;;;31.13;23.48
37710;BME280;60223;34.854;-92.408;2023-08-30T03:47:13;100262.08;;;31.06;23.60
37710;BME280;60223;34.854;-92.408;2023-08-30T03:49:39;100265.59;;;30.43;23.98
37710;BME280;60223;34.854;-92.408;2023-08-30T03:52:03;100268.02;;;30.76;23.91
37710;BME280;60223;34.854;-92.408;2023-08-30T03:54:29;100271.09;;;31.45;23.46
37710;BME280;60223;34.854;-92.408;2023-08-30T03:56:55;100273.60;;;30.04;24.38
37710;BME280;60223;34.854;-92.408;2023-08-30T03:59:19;100275.26;;;31.30;23.79
37710;BME280;60223;34.854;-92.408;2023-08-30T04:01:45;100277.26;;;30.29;24.40
37710;BME280;60223;34.854;-92.408;2023-08-30T04:04:11;100277.23;;;30.83;24.10
37710;BME280;60223;34.854;-92.408;2023-08-30T04:09:03;100279.60;;;30.34;24.36
37710;BME280;60223;34.854;-92.408;2023-08-30T04:11:29;100283.90;;;31.07;24.23
37710;BME280;60223;34.854;-92.408;2023-08-30T04:13:54;100283.59;;;30.68;24.39
37710;BME280;60223;34.854;-92.408;2023-08-30T04:16:18;100282.16;;;30.92;24.30
37710;BME280;60223;34.854;-92.408;2023-08-30T04:18:45;100280.72;;;31.27;24.22
37710;BME280;60223;34.854;-92.408;2023-08-30T04:21:10;100279.73;;;30.74;24.47
37710;BME280;60223;34.854;-92.408;2023-08-30T04:23:36;100279.04;;;30.94;24.38
37710;BME280;60223;34.854;-92.408;2023-08-30T04:26:02;100277.97;;;31.28;24.28
37710;BME280;60223;34.854;-92.408;2023-08-30T04:28:27;100271.70;;;31.18;24.39
37710;BME280;60223;34.854;-92.408;2023-08-30T04:30:56;100269.14;;;31.31;24.33
37710;BME280;60223;34.854;-92.408;2023-08-30T04:33:19;100272.28;;;30.94;24.32
37710;BME280;60223;34.854;-92.408;2023-08-30T04:35:49;100273.63;;;31.14;24.35
37710;BME280;60223;34.854;-92.408;2023-08-30T04:38:10;100270.96;;;30.93;24.56
37710;BME280;60223;34.854;-92.408;2023-08-30T04:45:27;100263.44;;;30.86;24.60
37710;BME280;60223;34.854;-92.408;2023-08-30T04:47:52;100263.62;;;30.91;24.59
37710;BME280;60223;34.854;-92.408;2023-08-30T04:50:18;100263.77;;;30.94;24.67
37710;BME280;60223;34.854;-92.408;2023-08-30T04:52:43;100261.05;;;30.41;25.16
37710;BME280;60223;34.854;-92.408;2023-08-30T04:55:10;100261.06;;;30.54;25.06
37710;BME280;60223;34.854;-92.408;2023-08-30T04:57:34;100258.26;;;30.80;24.85
37710;BME280;60223;34.854;-92.408;2023-08-30T05:00:01;100256.69;;;30.55;25.03
37710;BME280;60223;34.854;-92.408;2023-08-30T05:02:25;100254.19;;;30.17;25.31
37710;BME280;60223;34.854;-92.408;2023-08-30T05:04:51;100252.18;;;29.76;25.81
37710;BME280;60223;34.854;-92.408;2023-08-30T05:07:17;100248.24;;;30.82;25.09
37710;BME280;60223;34.854;-92.408;2023-08-30T05:09:43;100247.92;;;31.03;25.00
37710;BME280;60223;34.854;-92.408;2023-08-30T05:12:08;100250.72;;;31.01;24.75
37710;BME280;60223;34.854;-92.408;2023-08-30T05:14:33;100248.12;;;31.07;25.00
37710;BME280;60223;34.854;-92.408;2023-08-30T05:17:00;100246.99;;;31.07;24.73
37710;BME280;60223;34.854;-92.408;2023-08-30T05:19:25;100249.27;;;31.51;24.58
37710;BME280;60223;34.854;-92.408;2023-08-30T05:21:48;100251.13;;;31.07;24.82
37710;BME280;60223;34.854;-92.408;2023-08-30T05:24:16;100251.21;;;31.05;24.75
37710;BME280;60223;34.854;-92.408;2023-08-30T05:26:42;100249.67;;;31.06;24.84
37710;BME280;60223;34.854;-92.408;2023-08-30T05:29:07;100250.36;;;31.00;24.96
37710;BME280;60223;34.854;-92.408;2023-08-30T05:31:33;100247.30;;;31.11;24.81
37710;BME280;60223;34.854;-92.408;2023-08-30T05:33:57;100244.02;;;31.49;24.75
37710;BME280;60223;34.854;-92.408;2023-08-30T05:36:24;100244.08;;;31.22;25.00
37710;BME280;60223;34.854;-92.408;2023-08-30T05:38:50;100242.26;;;30.63;25.27
37710;BME280;60223;34.854;-92.408;2023-08-30T05:41:15;100241.17;;;31.22;25.02
37710;BME280;60223;34.854;-92.408;2023-08-30T05:43:40;100241.28;;;31.00;24.97
37710;BME280;60223;34.854;-92.408;2023-08-30T05:46:07;100239.07;;;31.30;24.93
37710;BME280;60223;34.854;-92.408;2023-08-30T05:48:33;100239.11;;;30.78;25.43
37710;BME280;60223;34.854;-92.408;2023-08-30T05:50:59;100241.45;;;30.35;25.63
37710;BME280;60223;34.854;-92.408;2023-08-30T05:53:22;100240.81;;;31.41;24.95
37710;BME280;60223;34.854;-92.408;2023-08-30T05:55:49;100239.16;;;30.97;25.34
37710;BME280;60223;34.854;-92.408;2023-08-30T05:58:15;100236.57;;;31.19;24.98
37710;BME280;60223;34.854;-92.408;2023-08-30T06:00:40;100234.68;;;30.58;25.43
37710;BME280;60223;34.854;-92.408;2023-08-30T06:03:06;100233.72;;;31.36;24.79
37710;BME280;60223;34.854;-92.408;2023-08-30T06:05:31;100232.44;;;30.81;25.27
37710;BME280;60223;34.854;-92.408;2023-08-30T06:07:56;100234.12;;;30.33;25.74
37710;BME280;60223;34.854;-92.408;2023-08-30T06:10:22;100233.50;;;30.43;25.61
37710;BME280;60223;34.854;-92.408;2023-08-30T06:12:48;100228.74;;;31.36;24.89
37710;BME280;60223;34.854;-92.408;2023-08-30T06:15:14;100226.06;;;31.20;25.17
37710;BME280;60223;34.854;-92.408;2023-08-30T06:17:39;100221.23;;;31.47;24.69
37710;BME280;60223;34.854;-92.408;2023-08-30T06:20:05;100218.79;;;31.58;24.64
37710;BME280;60223;34.854;-92.408;2023-08-30T06:22:30;100221.71;;;30.90;25.14
37710;BME280;60223;34.854;-92.408;2023-08-30T06:24:54;100225.00;;;30.62;25.54
37710;BME280;60223;34.854;-92.408;2023-08-30T06:27:22;100222.64;;;31.16;24.96
37710;BME280;60223;34.854;-92.408;2023-08-30T06:29:47;100220.86;;;31.17;24.93
37710;BME280;60223;34.854;-92.408;2023-08-30T06:32:12;100221.02;;;31.25;24.76
37710;BME280;60223;34.854;-92.408;2023-08-30T06:34:38;100215.29;;;31.63;24.97
37710;BME280;60223;34.854;-92.408;2023-08-30T06:37:03;100212.71;;;31.81;24.82
37710;BME280;60223;34.854;-92.408;2023-08-30T06:39:32;100211.11;;;31.42;24.78
37710;BME280;60223;34.854;-92.408;2023-08-30T06:41:55;100207.95;;;31.74;24.65
37710;BME280;60223;34.854;-92.408;2023-08-30T06:44:18;100203.57;;;31.61;24.80
37710;BME280;60223;34.854;-92.408;2023-08-30T06:46:45;100201.52;;;31.74;24.56
37710;BME280;60223;34.854;-92.408;2023-08-30T06:49:08;100202.68;;;31.89;24.46
37710;BME280;60223;34.854;-92.408;2023-08-30T06:51:36;100200.82;;;31.25;24.79
37710;BME280;60223;34.854;-92.408;2023-08-30T06:54:03;100203.00;;;31.71;24.57
37710;BME280;60223;34.854;-92.408;2023-08-30T06:56:26;100203.59;;;31.25;24.80
37710;BME280;60223;34.854;-92.408;2023-08-30T06:58:53;100201.25;;;31.58;24.62
37710;BME280;60223;34.854;-92.408;2023-08-30T07:01:19;100198.83;;;31.56;24.77
37710;BME280;60223;34.854;-92.408;2023-08-30T07:03:45;100195.74;;;31.35;24.72
37710;BME280;60223;34.854;-92.408;2023-08-30T07:06:10;100191.08;;;31.53;24.57
37710;BME280;60223;34.854;-92.408;2023-08-30T07:08:36;100188.48;;;31.76;24.57
37710;BME280;60223;34.854;-92.408;2023-08-30T07:11:02;100187.16;;;31.49;24.52
37710;BME280;60223;34.854;-92.408;2023-08-30T07:13:27;100189.60;;;31.31;24.71
37710;BME280;60223;34.854;-92.408;2023-08-30T07:15:52;100189.87;;;31.56;24.75
37710;BME280;60223;34.854;-92.408;2023-08-30T07:18:18;100186.68;;;31.66;24.68
37710;BME280;60223;34.854;-92.408;2023-08-30T07:20:44;100184.44;;;31.82;24.44
37710;BME280;60223;34.854;-92.408;2023-08-30T07:23:08;100187.17;;;31.67;24.41
37710;BME280;60223;34.854;-92.408;2023-08-30T07:25:35;100190.81;;;31.97;24.37
37710;BME280;60223;34.854;-92.408;2023-08-30T07:28:01;100194.14;;;31.41;24.62
37710;BME280;60223;34.854;-92.408;2023-08-30T07:30:26;100195.55;;;31.83;24.54
37710;BME280;60223;34.854;-92.408;2023-08-30T07:32:52;100194.44;;;31.95;24.33
37710;BME280;60223;34.854;-92.408;2023-08-30T07:35:14;100193.67;;;31.70;24.44
37710;BME280;60223;34.854;-92.408;2023-08-30T07:37:43;100194.45;;;31.93;24.45
37710;BME280;60223;34.854;-92.408;2023-08-30T07:40:09;100194.70;;;31.37;24.69
37710;BME280;60223;34.854;-92.408;2023-08-30T07:42:34;100197.19;;;31.61;24.49
37710;BME280;60223;34.854;-92.408;2023-08-30T07:45:00;100196.56;;;31.57;24.53
37710;BME280;60223;34.854;-92.408;2023-08-30T07:47:25;100192.77;;;31.56;24.54
37710;BME280;60223;34.854;-92.408;2023-08-30T07:49:51;100188.17;;;31.98;24.37
37710;BME280;60223;34.854;-92.408;2023-08-30T07:52:15;100187.24;;;31.57;24.53
37710;BME280;60223;34.854;-92.408;2023-08-30T07:54:41;100189.20;;;32.06;24.31
37710;BME280;60223;34.854;-92.408;2023-08-30T07:57:08;100193.66;;;31.87;24.47
37710;BME280;60223;34.854;-92.408;2023-08-30T07:59:33;100199.55;;;31.88;24.45
37710;BME280;60223;34.854;-92.408;2023-08-30T08:01:58;100203.87;;;31.54;24.58
37710;BME280;60223;34.854;-92.408;2023-08-30T08:04:24;100208.89;;;31.91;24.46
37710;BME280;60223;34.854;-92.408;2023-08-30T08:06:50;100209.06;;;31.61;24.46
37710;BME280;60223;34.854;-92.408;2023-08-30T08:09:15;100208.70;;;31.52;24.57
37710;BME280;60223;34.854;-92.408;2023-08-30T08:11:40;100207.79;;;31.50;24.60
37710;BME280;60223;34.854;-92.408;2023-08-30T08:14:04;100212.18;;;31.83;24.54
37710;BME280;60223;34.854;-92.408;2023-08-30T08:16:32;100213.34;;;31.75;24.61
37710;BME280;60223;34.854;-92.408;2023-08-30T08:19:06;100211.54;;;31.16;24.70
37710;BME280;60223;34.854;-92.408;2023-08-30T08:21:23;100210.90;;;31.76;24.58
37710;BME280;60223;34.854;-92.408;2023-08-30T08:23:49;100212.61;;;31.70;24.85
37710;BME280;60223;34.854;-92.408;2023-08-30T08:26:15;100212.03;;;31.71;24.65
37710;BME280;60223;34.854;-92.408;2023-08-30T08:28:40;100211.86;;;31.19;24.88
37710;BME280;60223;34.854;-92.408;2023-08-30T08:31:04;100214.52;;;31.75;24.63
37710;BME280;60223;34.854;-92.408;2023-08-30T08:33:31;100212.96;;;31.64;24.72
37710;BME280;60223;34.854;-92.408;2023-08-30T08:35:57;100211.49;;;31.91;24.70
37710;BME280;60223;34.854;-92.408;2023-08-30T08:38:22;100205.99;;;31.33;24.80
37710;BME280;60223;34.854;-92.408;2023-08-30T08:40:47;100203.09;;;31.31;24.81
37710;BME280;60223;34.854;-92.408;2023-08-30T08:43:14;100198.48;;;31.50;24.83
37710;BME280;60223;34.854;-92.408;2023-08-30T08:45:39;100194.64;;;31.51;24.83
37710;BME280;60223;34.854;-92.408;2023-08-30T08:55:19;100196.35;;;30.85;25.22
37710;BME280;60223;34.854;-92.408;2023-08-30T08:57:48;100197.25;;;31.10;24.99
37710;BME280;60223;34.854;-92.408;2023-08-30T09:00:13;100196.84;;;31.42;24.93
37710;BME280;60223;34.854;-92.408;2023-08-30T09:02:38;100200.32;;;31.04;25.05
37710;BME280;60223;34.854;-92.408;2023-08-30T09:05:04;100198.24;;;31.14;24.97
37710;BME280;60223;34.854;-92.408;2023-08-30T09:07:30;100199.28;;;31.24;25.07
37710;BME280;60223;34.854;-92.408;2023-08-30T09:09:55;100197.83;;;31.36;24.95
37710;BME280;60223;34.854;-92.408;2023-08-30T09:12:20;100195.21;;;31.29;25.03
37710;BME280;60223;34.854;-92.408;2023-08-30T09:14:54;100195.90;;;31.19;24.89
37710;BME280;60223;34.854;-92.408;2023-08-30T09:17:11;100200.09;;;31.10;24.96
37710;BME280;60223;34.854;-92.408;2023-08-30T09:19:35;100202.45;;;31.06;25.02
37710;BME280;60223;34.854;-92.408;2023-08-30T09:24:36;100200.14;;;31.12;25.18
37710;BME280;60223;34.854;-92.408;2023-08-30T09:26:54;100194.83;;;31.00;25.04
37710;BME280;60223;34.854;-92.408;2023-08-30T09:29:20;100194.74;;;30.98;25.07
37710;BME280;60223;34.854;-92.408;2023-08-30T09:31:45;100196.04;;;30.94;25.11
37710;BME280;60223;34.854;-92.408;2023-08-30T09:34:10;100199.17;;;31.34;24.94
37710;BME280;60223;34.854;-92.408;2023-08-30T09:36:38;100199.45;;;31.25;25.03
37710;BME280;60223;34.854;-92.408;2023-08-30T09:39:03;100199.52;;;31.21;24.87
37710;BME280;60223;34.854;-92.408;2023-08-30T09:43:52;100200.12;;;31.08;24.96
37710;BME280;60223;34.854;-92.408;2023-08-30T09:46:17;100199.64;;;31.43;24.86
37710;BME280;60223;34.854;-92.408;2023-08-30T09:48:43;100198.52;;;31.09;24.94
37710;BME280;60223;34.854;-92.408;2023-08-30T09:51:11;100203.25;;;31.13;24.92
37710;BME280;60223;34.854;-92.408;2023-08-30T09:53:40;100204.36;;;31.06;24.96
37710;BME280;60223;34.854;-92.408;2023-08-30T09:56:01;100208.59;;;31.46;25.03
37710;BME280;60223;34.854;-92.408;2023-08-30T09:58:25;100209.39;;;31.02;25.00
37710;BME280;60223;34.854;-92.408;2023-08-30T10:00:50;100213.16;;;31.17;24.89
37710;BME280;60223;34.854;-92.408;2023-08-30T10:03:17;100213.94;;;31.33;24.91
37710;BME280;60223;34.854;-92.408;2023-08-30T10:05:44;100214.69;;;31.28;24.79
37710;BME280;60223;34.854;-92.408;2023-08-30T10:08:09;100211.97;;;31.58;24.91
37710;BME280;60223;34.854;-92.408;2023-08-30T10:10:34;100216.53;;;31.38;24.90
37710;BME280;60223;34.854;-92.408;2023-08-30T10:13:00;100216.32;;;31.49;24.80
37710;BME280;60223;34.854;-92.408;2023-08-30T10:15:25;100216.42;;;31.16;24.87
37710;BME280;60223;34.854;-92.408;2023-08-30T10:17:52;100226.05;;;30.97;25.03
37710;BME280;60223;34.854;-92.408;2023-08-30T10:20:16;100224.00;;;31.11;24.90
37710;BME280;60223;34.854;-92.408;2023-08-30T10:22:41;100224.24;;;31.38;24.88
37710;BME280;60223;34.854;-92.408;2023-08-30T10:25:08;100224.98;;;31.17;24.84
37710;BME280;60223;34.854;-92.408;2023-08-30T10:27:33;100226.83;;;31.60;24.87
37710;BME280;60223;34.854;-92.408;2023-08-30T10:29:59;100227.96;;;31.41;24.82
37710;BME280;60223;34.854;-92.408;2023-08-30T10:32:24;100228.28;;;31.57;24.70
37710;BME280;60223;34.854;-92.408;2023-08-30T10:34:49;100229.15;;;31.45;24.60
37710;BME280;60223;34.854;-92.408;2023-08-30T10:37:15;100229.27;;;31.54;24.71
37710;BME280;60223;34.854;-92.408;2023-08-30T10:42:09;100236.25;;;31.25;24.74
37710;BME280;60223;34.854;-92.408;2023-08-30T10:44:29;100242.26;;;31.15;24.84
37710;BME280;60223;34.854;-92.408;2023-08-30T10:46:58;100247.88;;;31.39;24.83
37710;BME280;60223;34.854;-92.408;2023-08-30T10:49:23;100246.29;;;31.10;24.87
37710;BME280;60223;34.854;-92.408;2023-08-30T10:54:16;100245.11;;;31.09;24.86
37710;BME280;60223;34.854;-92.408;2023-08-30T10:56:46;100240.94;;;31.31;24.86
37710;BME280;60223;34.854;-92.408;2023-08-30T10:59:05;100237.83;;;31.39;24.83
37710;BME280;60223;34.854;-92.408;2023-08-30T11:01:30;100235.65;;;31.19;24.78
37710;BME280;60223;34.854;-92.408;2023-08-30T11:03:56;100233.89;;;31.16;24.81
37710;BME280;60223;34.854;-92.408;2023-08-30T11:06:21;100239.30;;;31.34;24.86
37710;BME280;60223;34.854;-92.408;2023-08-30T11:08:47;100238.41;;;31.41;24.78
37710;BME280;60223;34.854;-92.408;2023-08-30T11:11:13;100242.51;;;31.16;24.81
37710;BME280;60223;34.854;-92.408;2023-08-30T11:13:39;100241.11;;;31.42;24.75
37710;BME280;60223;34.854;-92.408;2023-08-30T11:16:04;100240.87;;;31.44;24.99
37710;BME280;60223;34.854;-92.408;2023-08-30T11:18:29;100237.40;;;29.37;26.02
37710;BME280;60223;34.854;-92.408;2023-08-30T11:20:58;100246.62;;;29.16;26.05
37710;BME280;60223;34.854;-92.408;2023-08-30T11:23:20;100250.29;;;28.75;26.24
37710;BME280;60223;34.854;-92.408;2023-08-30T11:25:49;100255.52;;;28.36;26.45
37710;BME280;60223;34.854;-92.408;2023-08-30T11:28:11;100254.16;;;29.34;26.46
37710;BME280;60223;34.854;-92.408;2023-08-30T11:30:42;100253.21;;;29.71;25.77
37710;BME280;60223;34.854;-92.408;2023-08-30T11:33:03;100248.17;;;29.65;25.63
37710;BME280;60223;34.854;-92.408;2023-08-30T11:35:28;100246.34;;;29.68;25.65
37710;BME280;60223;34.854;-92.408;2023-08-30T11:37:53;100246.39;;;29.53;25.57
37710;BME280;60223;34.854;-92.408;2023-08-30T11:40:19;100252.52;;;30.38;25.08
37710;BME280;60223;34.854;-92.408;2023-08-30T11:42:46;100252.28;;;30.44;25.02
37710;BME280;60223;34.854;-92.408;2023-08-30T11:45:09;100254.22;;;30.42;24.83
37710;BME280;60223;34.854;-92.408;2023-08-30T11:47:37;100254.08;;;30.04;25.02
37710;BME280;60223;34.854;-92.408;2023-08-30T11:50:01;100256.15;;;30.56;24.95
37710;BME280;60223;34.854;-92.408;2023-08-30T11:52:27;100259.23;;;30.27;25.01
37710;BME280;60223;34.854;-92.408;2023-08-30T11:54:55;100260.77;;;30.44;24.87
37710;BME280;60223;34.854;-92.408;2023-08-30T11:57:18;100259.07;;;30.74;24.60
37710;BME280;60223;34.854;-92.408;2023-08-30T11:59:44;100256.73;;;30.96;24.63
37710;BME280;60223;34.854;-92.408;2023-08-30T12:02:09;100260.65;;;30.59;24.59
37710;BME280;60223;34.854;-92.408;2023-08-30T12:09:40;100265.40;;;30.91;24.57
37710;BME280;60223;34.854;-92.408;2023-08-30T12:11:51;100265.97;;;30.77;24.71
37710;BME280;60223;34.854;-92.408;2023-08-30T12:14:17;100267.19;;;30.95;24.56
37710;BME280;60223;34.854;-92.408;2023-08-30T12:16:41;100272.27;;;31.06;24.47
37710;BME280;60223;34.854;-92.408;2023-08-30T12:19:13;100276.77;;;30.99;24.55
37710;BME280;60223;34.854;-92.408;2023-08-30T12:21:39;100279.74;;;31.01;24.52
37710;BME280;60223;34.854;-92.408;2023-08-30T12:24:04;100280.64;;;30.90;24.63
37710;BME280;60223;34.854;-92.408;2023-08-30T12:26:35;100278.30;;;31.17;24.64
37710;BME280;60223;34.854;-92.408;2023-08-30T12:28:50;100278.07;;;30.77;24.78
37710;BME280;60223;34.854;-92.408;2023-08-30T12:31:15;100281.60;;;31.04;24.55
37710;BME280;60223;34.854;-92.408;2023-08-30T12:33:40;100278.91;;;31.13;24.49
37710;BME280;60223;34.854;-92.408;2023-08-30T12:36:08;100279.08;;;31.01;24.60
37710;BME280;60223;34.854;-92.408;2023-08-30T12:38:33;100279.83;;;30.86;24.77
37710;BME280;60223;34.854;-92.408;2023-08-30T12:40:59;100280.04;;;30.92;24.71
37710;BME280;60223;34.854;-92.408;2023-08-30T12:43:23;100279.42;;;30.55;25.05
37710;BME280;60223;34.854;-92.408;2023-08-30T12:45:49;100279.62;;;30.28;25.31
37710;BME280;60223;34.854;-92.408;2023-08-30T12:48:17;100281.62;;;30.04;25.57
37710;BME280;60223;34.854;-92.408;2023-08-30T12:50:42;100283.24;;;30.48;25.39
37710;BME280;60223;34.854;-92.408;2023-08-30T12:55:32;100292.41;;;30.11;25.51
37710;BME280;60223;34.854;-92.408;2023-08-30T13:00:23;100292.34;;;30.51;25.42
37710;BME280;60223;34.854;-92.408;2023-08-30T13:02:47;100291.41;;;30.15;25.51
37710;BME280;60223;34.854;-92.408;2023-08-30T13:05:13;100292.45;;;30.37;25.35
37710;BME280;60223;34.854;-92.408;2023-08-30T13:07:40;100297.05;;;30.11;25.57
37710;BME280;60223;34.854;-92.408;2023-08-30T13:10:06;100301.18;;;29.87;25.78
37710;BME280;60223;34.854;-92.408;2023-08-30T13:12:31;100304.73;;;30.04;25.43
37710;BME280;60223;34.854;-92.408;2023-08-30T13:14:54;100304.77;;;30.36;25.37